createdAt,value
2018-10-01T00:02:22.645Z,12.80
2018-10-01T00:04:50.852Z,13.60
2018-10-01T00:07:19.077Z,10.90
2018-10-01T00:09:47.369Z,11.75
2018-10-01T00:12:15.529Z,12.65
2018-10-01T00:14:44.135Z,18.35
2018-10-01T00:17:12.407Z,10.78
2018-10-01T00:19:46.270Z,10.95
2018-10-01T00:22:20.225Z,9.08
2018-10-01T00:24:48.443Z,12.75
2018-10-01T00:27:16.672Z,12.85
2018-10-01T00:29:44.912Z,12.07
2018-10-01T00:32:13.123Z,12.40
2018-10-01T00:34:41.296Z,11.93
2018-10-01T00:37:09.481Z,11.60
2018-10-01T00:39:38.046Z,16.02
2018-10-01T00:42:06.324Z,11.30
2018-10-01T00:44:34.496Z,12.70
2018-10-01T00:47:02.701Z,11.60
2018-10-01T00:49:30.904Z,14.45
2018-10-01T00:51:59.085Z,16.15
2018-10-01T00:54:27.268Z,13.08
2018-10-01T00:56:55.447Z,18.27
2018-10-01T00:59:23.621Z,13.55
2018-10-01T01:01:51.828Z,13.72
2018-10-01T01:04:20.028Z,9.98
2018-10-01T01:06:48.212Z,9.73
2018-10-01T01:09:16.425Z,14.47
2018-10-01T01:11:44.635Z,12.80
2018-10-01T01:14:12.853Z,12.88
2018-10-01T01:16:41.155Z,15.38
2018-10-01T01:19:09.348Z,13.68
2018-10-01T01:21:37.508Z,12.35
2018-10-01T01:24:05.679Z,17.45
2018-10-01T01:26:33.929Z,12.60
2018-10-01T01:29:02.151Z,13.75
2018-10-01T01:31:30.246Z,12.75
2018-10-01T01:33:58.427Z,10.72
2018-10-01T01:36:26.595Z,15.35
2018-10-01T01:38:54.778Z,11.20
2018-10-01T01:41:23.840Z,12.68
2018-10-01T01:43:52.104Z,10.53
2018-10-01T01:46:20.336Z,8.85
2018-10-01T01:48:48.563Z,10.65
2018-10-01T01:51:16.801Z,10.70
2018-10-01T01:53:45.019Z,10.48
2018-10-01T01:56:13.219Z,15.80
2018-10-01T01:58:41.367Z,13.45
2018-10-01T02:01:09.533Z,16.05
2018-10-01T02:03:37.771Z,10.98
2018-10-01T02:06:06.035Z,16.73
2018-10-01T02:08:34.286Z,18.92
2018-10-01T02:11:02.465Z,19.02
2018-10-01T02:13:30.625Z,10.05
2018-10-01T02:15:58.751Z,10.65
2018-10-01T02:18:26.968Z,14.93
2018-10-01T02:20:55.245Z,13.30
2018-10-01T02:23:23.413Z,11.85
2018-10-01T02:25:51.593Z,12.75
2018-10-01T02:28:19.779Z,14.25
2018-10-01T02:30:47.940Z,15.93
2018-10-01T02:33:16.140Z,18.23
2018-10-01T02:35:44.357Z,13.28
2018-10-01T02:38:12.518Z,13.22
2018-10-01T02:40:41.379Z,11.43
2018-10-01T02:43:09.653Z,12.40
2018-10-01T02:45:37.929Z,10.60
2018-10-01T02:48:06.222Z,16.15
2018-10-01T02:50:34.400Z,9.55
2018-10-01T02:53:08.251Z,15.85
2018-10-01T02:55:36.464Z,11.20
2018-10-01T02:58:04.844Z,12.50
2018-10-01T03:00:33.068Z,11.03
2018-10-01T03:03:02.210Z,14.45
2018-10-01T03:05:30.385Z,24.12
2018-10-01T03:07:58.577Z,16.73
2018-10-01T03:10:26.828Z,16.12
2018-10-01T03:12:55.054Z,13.93
2018-10-01T03:15:23.226Z,11.70
2018-10-01T03:17:51.433Z,15.28
2018-10-01T03:20:19.590Z,8.35
2018-10-01T03:22:47.875Z,11.73
2018-10-01T03:25:16.048Z,10.23
2018-10-01T03:27:44.239Z,11.10
2018-10-01T03:30:12.425Z,25.08
2018-10-01T03:32:40.665Z,12.53
2018-10-01T03:35:08.891Z,14.55
2018-10-01T03:37:37.133Z,20.75
2018-10-01T03:40:05.589Z,11.10
2018-10-01T03:42:33.812Z,10.68
2018-10-01T03:45:02.095Z,21.90
2018-10-01T03:47:30.308Z,15.83
2018-10-01T03:49:58.570Z,16.60
2018-10-01T03:52:26.761Z,14.95
2018-10-01T03:54:54.975Z,17.25
2018-10-01T03:57:23.120Z,14.45
2018-10-01T03:59:51.396Z,18.30
2018-10-01T04:02:19.648Z,10.68
2018-10-01T04:04:47.928Z,12.00
2018-10-01T04:07:16.163Z,11.12
2018-10-01T04:09:44.347Z,13.88
2018-10-01T04:12:12.543Z,8.18
2018-10-01T04:14:40.961Z,21.33
2018-10-01T04:17:09.192Z,18.98
2018-10-01T04:19:37.392Z,18.57
2018-10-01T04:22:05.695Z,13.62
2018-10-01T04:24:34.021Z,16.27
2018-10-01T04:27:02.207Z,8.78
2018-10-01T04:29:30.423Z,20.43
2018-10-01T04:31:59.466Z,11.60
2018-10-01T04:34:27.688Z,15.68
2018-10-01T04:36:56.050Z,15.60
2018-10-01T04:39:24.315Z,12.93
2018-10-01T04:41:52.647Z,13.00
2018-10-01T04:44:20.866Z,13.78
2018-10-01T04:46:49.079Z,15.50
2018-10-01T04:49:17.279Z,19.02
2018-10-01T04:51:45.501Z,13.03
2018-10-01T04:54:13.733Z,13.28
2018-10-01T04:56:41.979Z,14.13
2018-10-01T04:59:10.986Z,8.38
2018-10-01T05:01:39.229Z,13.20
2018-10-01T05:04:07.494Z,12.53
2018-10-01T05:06:36.232Z,9.90
2018-10-01T05:09:06.921Z,9.13
2018-10-01T05:11:35.088Z,22.52
2018-10-01T05:14:03.313Z,17.25
2018-10-01T05:16:31.612Z,18.80
2018-10-01T05:18:59.864Z,15.48
2018-10-01T05:21:28.140Z,16.85
2018-10-01T05:23:56.384Z,15.70
2018-10-01T05:26:24.608Z,13.53
2018-10-01T05:28:52.763Z,12.53
2018-10-01T05:31:20.933Z,18.02
2018-10-01T05:33:49.160Z,19.90
2018-10-01T05:36:17.361Z,17.27
2018-10-01T05:38:45.592Z,21.57
2018-10-01T05:41:13.804Z,22.82
2018-10-01T05:43:41.969Z,22.73
2018-10-01T05:46:10.234Z,20.90
2018-10-01T05:48:38.405Z,29.90
2018-10-01T05:51:06.644Z,23.07
2018-10-01T05:53:34.892Z,23.57
2018-10-01T05:56:03.100Z,23.67
2018-10-01T05:58:31.344Z,26.80
2018-10-01T06:00:59.560Z,27.32
2018-10-01T06:03:27.992Z,25.17
2018-10-01T06:05:57.008Z,29.02
2018-10-01T06:08:25.568Z,33.45
2018-10-01T06:10:53.803Z,36.80
2018-10-01T06:13:22.045Z,31.17
2018-10-01T06:15:50.711Z,27.30
2018-10-01T06:18:19.077Z,33.92
2018-10-01T06:20:47.350Z,30.80
2018-10-01T06:23:15.654Z,31.95
2018-10-01T06:25:43.851Z,35.88
2018-10-01T06:28:12.124Z,41.15
2018-10-01T06:30:40.464Z,40.40
2018-10-01T06:33:09.075Z,33.48
2018-10-01T06:35:37.357Z,40.48
2018-10-01T06:38:05.652Z,38.33
2018-10-01T06:40:33.984Z,31.55
2018-10-01T06:43:02.214Z,35.10
2018-10-01T06:45:30.467Z,41.50
2018-10-01T06:47:58.748Z,30.10
2018-10-01T06:50:26.945Z,44.88
2018-10-01T06:52:55.204Z,29.10
2018-10-01T06:55:23.477Z,40.40
2018-10-01T06:57:52.376Z,34.15
2018-10-01T07:00:20.552Z,36.88
2018-10-01T07:02:48.709Z,41.02
2018-10-01T07:05:16.898Z,33.10
2018-10-01T07:07:45.164Z,35.30
2018-10-01T07:10:13.369Z,41.80
2018-10-01T07:12:41.725Z,42.70
2018-10-01T07:15:09.927Z,32.80
2018-10-01T07:17:38.096Z,31.30
2018-10-01T07:20:06.871Z,44.23
2018-10-01T07:22:35.150Z,35.05
2018-10-01T07:25:03.311Z,33.98
2018-10-01T07:27:31.588Z,44.50
2018-10-01T07:29:59.828Z,41.20
2018-10-01T07:32:28.044Z,38.15
2018-10-01T07:34:56.309Z,43.55
2018-10-01T07:37:24.656Z,31.77
2018-10-01T07:39:52.897Z,44.58
2018-10-01T07:42:21.129Z,28.20
2018-10-01T07:44:49.308Z,28.10
2018-10-01T07:47:17.723Z,36.80
2018-10-01T07:49:45.935Z,33.83
2018-10-01T07:52:14.112Z,38.38
2018-10-01T07:54:42.304Z,43.48
2018-10-01T07:57:10.562Z,35.50
2018-10-01T07:59:39.394Z,38.53
2018-10-01T08:02:07.751Z,37.83
2018-10-01T08:04:35.872Z,36.63
2018-10-01T08:07:04.049Z,41.45
2018-10-01T08:09:32.236Z,34.88
2018-10-01T08:12:00.419Z,36.28
2018-10-01T08:14:28.707Z,37.85
2018-10-01T08:16:57.101Z,33.75
2018-10-01T08:19:25.380Z,31.87
2018-10-01T08:21:53.545Z,37.55
2018-10-01T08:24:21.821Z,44.63
2018-10-01T08:26:50.021Z,34.92
2018-10-01T08:29:18.425Z,36.93
2018-10-01T08:31:46.511Z,38.92
2018-10-01T08:34:14.708Z,32.38
2018-10-01T08:36:42.924Z,41.25
2018-10-01T08:39:13.046Z,37.42
2018-10-01T08:41:41.632Z,35.73
2018-10-01T08:44:10.843Z,38.35
2018-10-01T08:46:39.003Z,40.35
2018-10-01T08:50:13.409Z,36.88
2018-10-01T08:52:47.867Z,33.98
2018-10-01T08:55:16.143Z,39.63
2018-10-01T08:57:44.358Z,43.02
2018-10-01T09:00:12.590Z,35.90
2018-10-01T09:02:40.834Z,39.03
2018-10-01T09:05:09.071Z,38.75
2018-10-01T09:07:37.372Z,36.38
2018-10-01T09:10:05.531Z,40.78
2018-10-01T09:12:33.773Z,37.58
2018-10-01T09:15:02.103Z,31.40
2018-10-01T09:17:30.315Z,34.00
2018-10-01T09:19:58.554Z,35.33
2018-10-01T09:22:26.785Z,39.63
2018-10-01T09:24:54.899Z,32.48
2018-10-01T09:27:23.112Z,33.45
2018-10-01T09:29:51.309Z,49.45
2018-10-01T09:32:19.638Z,33.63
2018-10-01T09:34:47.840Z,39.63
2018-10-01T09:37:16.095Z,41.05
2018-10-01T09:39:44.286Z,34.88
2018-10-01T09:42:12.645Z,30.62
2018-10-01T09:44:40.876Z,34.73
2018-10-01T09:47:09.075Z,33.50
2018-10-01T09:49:37.224Z,28.20
2018-10-01T09:52:05.613Z,32.28
2018-10-01T09:54:33.864Z,35.15
2018-10-01T09:57:02.053Z,25.25
2018-10-01T09:59:30.278Z,31.00
2018-10-01T10:01:58.485Z,34.53
2018-10-01T10:04:26.755Z,32.53
2018-10-01T10:06:54.885Z,27.00
2018-10-01T10:09:23.132Z,25.72
2018-10-01T10:11:51.311Z,24.05
2018-10-01T10:14:19.497Z,29.63
2018-10-01T10:16:47.825Z,31.00
2018-10-01T10:19:15.900Z,21.65
2018-10-01T10:21:44.081Z,26.77
2018-10-01T10:24:12.358Z,23.98
2018-10-01T10:26:40.574Z,22.95
2018-10-01T10:29:08.803Z,30.95
2018-10-01T10:31:37.108Z,33.50
2018-10-01T10:34:05.411Z,23.83
2018-10-01T10:36:33.623Z,36.33
2018-10-01T10:39:01.872Z,26.00
2018-10-01T10:41:30.136Z,29.00
2018-10-01T10:43:58.386Z,23.25
2018-10-01T10:46:26.590Z,18.50
2018-10-01T10:48:54.767Z,23.42
2018-10-01T10:51:22.939Z,27.55
2018-10-01T10:53:51.217Z,22.70
2018-10-01T10:56:19.533Z,21.95
2018-10-01T10:58:47.749Z,20.43
2018-10-01T11:01:16.001Z,30.32
2018-10-01T11:03:44.197Z,22.00
2018-10-01T11:06:12.456Z,17.40
2018-10-01T11:08:40.726Z,16.70
2018-10-01T11:11:08.928Z,21.27
2018-10-01T11:13:37.074Z,23.90
2018-10-01T11:16:05.340Z,17.02
2018-10-01T11:18:33.621Z,23.62
2018-10-01T11:21:01.915Z,20.95
2018-10-01T11:23:30.093Z,24.75
2018-10-01T11:25:58.335Z,25.62
2018-10-01T11:28:26.544Z,21.35
2018-10-01T11:30:54.706Z,25.02
2018-10-01T11:33:22.988Z,22.30
2018-10-01T11:35:51.211Z,20.30
2018-10-01T11:38:19.412Z,18.05
2018-10-01T11:40:47.694Z,15.30
2018-10-01T11:43:16.049Z,24.52
2018-10-01T11:45:44.423Z,13.95
2018-10-01T11:48:12.579Z,18.27
2018-10-01T11:50:40.753Z,15.08
2018-10-01T11:53:09.025Z,19.45
2018-10-01T11:55:37.590Z,14.05
2018-10-01T11:58:06.038Z,12.05
2018-10-01T12:00:34.332Z,17.85
2018-10-01T12:03:02.572Z,9.23
2018-10-01T12:05:30.733Z,13.35
2018-10-01T12:07:58.998Z,12.00
2018-10-01T12:10:27.344Z,16.12
2018-10-01T12:12:55.440Z,15.15
2018-10-01T12:15:23.695Z,18.90
2018-10-01T12:17:51.923Z,19.67
2018-10-01T12:20:20.154Z,14.38
2018-10-01T12:22:48.429Z,13.53
2018-10-01T12:25:16.616Z,34.55
2018-10-01T12:27:44.891Z,8.30
2018-10-01T12:30:12.984Z,11.63
2018-10-01T12:32:41.210Z,13.68
2018-10-01T12:35:09.562Z,17.62
2018-10-01T12:37:38.065Z,12.78
2018-10-01T12:40:06.472Z,9.30
2018-10-01T12:42:34.761Z,13.20
2018-10-01T12:45:03.036Z,7.83
2018-10-01T12:47:31.260Z,16.27
2018-10-01T12:49:59.538Z,12.98
2018-10-01T12:52:27.925Z,6.12
2018-10-01T12:54:56.191Z,6.47
2018-10-01T12:57:24.393Z,8.90
2018-10-01T12:59:52.570Z,5.28
2018-10-01T13:02:20.783Z,18.57
2018-10-01T13:04:48.989Z,8.15
2018-10-01T13:07:17.210Z,7.62
2018-10-01T13:09:45.778Z,7.83
2018-10-01T13:12:14.084Z,13.48
2018-10-01T13:14:42.923Z,5.87
2018-10-01T13:17:11.210Z,7.35
2018-10-01T13:19:39.427Z,5.80
2018-10-01T13:22:08.392Z,6.67
2018-10-01T13:24:36.718Z,8.43
2018-10-01T13:27:05.191Z,4.75
2018-10-01T13:29:33.437Z,10.40
2018-10-01T13:32:01.675Z,9.08
2018-10-01T13:34:29.960Z,6.05
2018-10-01T13:36:58.357Z,7.97
2018-10-01T13:39:26.652Z,7.45
2018-10-01T13:41:55.066Z,5.45
2018-10-01T13:44:23.264Z,8.80
2018-10-01T13:46:51.782Z,8.55
2018-10-01T13:49:19.967Z,4.10
2018-10-01T13:51:48.611Z,4.10
2018-10-01T13:54:16.941Z,11.18
2018-10-01T13:56:45.033Z,4.65
2018-10-01T13:59:13.263Z,9.58
2018-10-01T14:01:41.561Z,7.03
2018-10-01T14:04:09.704Z,5.00
2018-10-01T14:06:38.038Z,9.83
2018-10-01T14:09:09.311Z,3.90
2018-10-01T14:11:37.693Z,5.10
2018-10-01T14:14:06.129Z,6.53
2018-10-01T14:16:34.425Z,10.95
2018-10-01T14:19:02.714Z,2.35
2018-10-01T14:21:30.978Z,6.37
2018-10-01T14:23:59.192Z,4.17
2018-10-01T14:26:27.405Z,4.72
2018-10-01T14:28:55.733Z,4.72
2018-10-01T14:31:24.099Z,4.67
2018-10-01T14:33:53.194Z,4.95
2018-10-01T14:36:21.689Z,3.20
2018-10-01T14:38:49.970Z,2.58
2018-10-01T14:41:18.236Z,4.60
2018-10-01T14:43:46.540Z,3.67
2018-10-01T14:46:14.968Z,4.95
2018-10-01T14:48:43.257Z,4.55
2018-10-01T14:51:11.571Z,5.58
2018-10-01T14:53:39.802Z,6.50
2018-10-01T14:56:08.119Z,3.95
2018-10-01T14:58:36.380Z,7.80
2018-10-01T15:01:04.831Z,8.65
2018-10-01T15:03:33.062Z,5.67
2018-10-01T15:06:01.291Z,4.92
2018-10-01T15:08:29.644Z,8.40
2018-10-01T15:10:58.084Z,13.05
2018-10-01T15:13:26.164Z,10.93
2018-10-01T15:15:54.447Z,10.13
2018-10-01T15:18:22.702Z,4.22
2018-10-01T15:20:50.908Z,7.08
2018-10-01T15:23:19.188Z,8.28
2018-10-01T15:25:47.390Z,10.08
2018-10-01T15:28:15.598Z,6.20
2018-10-01T15:30:43.739Z,6.65
2018-10-01T15:33:12.248Z,6.42
2018-10-01T15:35:40.437Z,4.85
2018-10-01T15:38:08.727Z,7.50
2018-10-01T15:40:36.964Z,17.20
2018-10-01T15:43:05.291Z,4.62
2018-10-01T15:45:33.529Z,2.77
2018-10-01T15:48:01.841Z,10.50
2018-10-01T15:50:30.054Z,6.20
2018-10-01T15:52:58.414Z,7.22
2018-10-01T15:55:26.667Z,8.43
2018-10-01T15:57:55.005Z,8.80
2018-10-01T16:00:23.240Z,10.20
2018-10-01T16:02:51.543Z,5.30
2018-10-01T16:05:19.801Z,2.75
2018-10-01T16:07:48.042Z,8.00
2018-10-01T16:10:16.239Z,9.65
2018-10-01T16:12:44.489Z,2.92
2018-10-01T16:15:12.833Z,10.18
2018-10-01T16:17:41.126Z,3.12
2018-10-01T16:20:09.373Z,4.67
2018-10-01T16:22:37.604Z,5.62
2018-10-01T16:25:06.437Z,3.83
2018-10-01T16:27:34.668Z,6.60
2018-10-01T16:30:03.006Z,4.35
2018-10-01T16:32:31.215Z,4.10
2018-10-01T16:35:00.238Z,5.80
2018-10-01T16:37:28.466Z,8.35
2018-10-01T16:39:56.767Z,7.05
2018-10-01T16:42:26.767Z,6.90
2018-10-01T16:44:55.052Z,6.72
2018-10-01T16:47:23.301Z,9.03
2018-10-01T16:49:52.103Z,4.33
2018-10-01T16:52:21.523Z,3.17
2018-10-01T16:54:49.948Z,3.25
2018-10-01T16:57:20.988Z,4.58
2018-10-01T16:59:50.256Z,3.90
2018-10-01T17:02:19.426Z,9.03
2018-10-01T17:04:47.712Z,4.10
2018-10-01T17:07:16.214Z,6.15
2018-10-01T17:09:44.510Z,8.73
2018-10-01T17:12:13.566Z,4.33
2018-10-01T17:14:42.240Z,15.23
2018-10-01T17:17:11.862Z,8.80
2018-10-01T17:19:41.382Z,7.15
2018-10-01T17:22:09.632Z,6.60
2018-10-01T17:24:37.881Z,5.97
2018-10-01T17:27:10.425Z,9.58
2018-10-01T17:29:38.997Z,7.35
2018-10-01T17:32:07.523Z,7.05
2018-10-01T17:34:35.837Z,5.20
2018-10-01T17:37:04.150Z,6.00
2018-10-01T17:39:32.366Z,8.80
2018-10-01T17:42:00.694Z,5.67
2018-10-01T17:44:29.046Z,4.00
2018-10-01T17:46:57.374Z,6.12
2018-10-01T17:49:25.673Z,6.40
2018-10-01T17:51:53.937Z,8.65
2018-10-01T17:54:22.413Z,6.60
2018-10-01T17:56:50.688Z,5.45
2018-10-01T17:59:19.117Z,6.05
2018-10-01T18:01:47.593Z,5.97
2018-10-01T18:04:15.978Z,6.47
2018-10-01T18:06:44.440Z,4.25
2018-10-01T18:09:12.704Z,6.37
2018-10-01T18:11:41.097Z,10.15
2018-10-01T18:14:09.865Z,4.95
2018-10-01T18:16:38.171Z,5.40
2018-10-01T18:19:06.494Z,5.55
2018-10-01T18:21:35.444Z,3.75
2018-10-01T18:24:03.823Z,3.35
2018-10-01T18:26:32.417Z,3.52
2018-10-01T18:29:00.781Z,3.80
2018-10-01T18:31:29.094Z,3.92
2018-10-01T18:33:57.477Z,6.45
2018-10-01T18:36:25.784Z,3.05
2018-10-01T18:38:54.073Z,5.35
2018-10-01T18:41:22.416Z,6.85
2018-10-01T18:43:50.723Z,5.53
2018-10-01T18:46:19.109Z,4.40
2018-10-01T18:48:47.311Z,8.50
2018-10-01T18:51:15.749Z,3.98
2018-10-01T18:53:44.312Z,10.05
2018-10-01T18:56:12.750Z,7.65
2018-10-01T18:58:41.321Z,7.50
2018-10-01T19:01:09.618Z,7.33
2018-10-01T19:03:37.916Z,10.08
2018-10-01T19:06:06.115Z,5.42
2018-10-01T19:08:34.386Z,3.50
2018-10-01T19:11:02.716Z,3.00
2018-10-01T19:13:31.113Z,10.15
2018-10-01T19:15:59.450Z,7.28
2018-10-01T19:18:27.734Z,4.95
2018-10-01T19:20:56.120Z,3.83
2018-10-01T19:23:24.340Z,5.40
2018-10-01T19:25:52.754Z,6.53
2018-10-01T19:28:21.200Z,8.55
2018-10-01T19:30:49.736Z,3.08
2018-10-01T19:33:18.264Z,10.05
2018-10-01T19:35:46.701Z,6.42
2018-10-01T19:38:14.911Z,5.58
2018-10-01T19:40:43.235Z,6.30
2018-10-01T19:43:11.680Z,6.47
2018-10-01T19:45:40.201Z,8.95
2018-10-01T19:48:08.533Z,7.15
2018-10-01T19:50:36.918Z,8.35
2018-10-01T19:53:05.635Z,10.43
2018-10-01T19:55:34.004Z,5.40
2018-10-01T19:58:02.344Z,11.73
2018-10-01T20:00:30.689Z,6.20
2018-10-01T20:02:58.997Z,7.55
2018-10-01T20:05:27.329Z,6.40
2018-10-01T20:07:55.607Z,4.75
2018-10-01T20:10:23.926Z,5.20
2018-10-01T20:12:52.218Z,11.45
2018-10-01T20:15:20.862Z,5.60
2018-10-01T20:17:49.089Z,4.87
2018-10-01T20:20:18.020Z,11.05
2018-10-01T20:22:46.344Z,10.08
2018-10-01T20:25:14.752Z,4.30
2018-10-01T20:27:43.122Z,6.65
2018-10-01T20:30:13.690Z,10.15
2018-10-01T20:32:42.496Z,6.35
2018-10-01T20:35:10.950Z,4.55
2018-10-01T20:37:39.157Z,8.88
2018-10-01T20:40:08.444Z,7.92
2018-10-01T20:42:36.760Z,4.20
2018-10-01T20:45:05.361Z,7.42
2018-10-01T20:47:33.846Z,6.62
2018-10-01T20:50:02.187Z,6.53
2018-10-01T20:52:31.164Z,6.37
2018-10-01T20:54:59.412Z,9.70
2018-10-01T20:57:28.004Z,4.12
2018-10-01T20:59:56.384Z,7.10
2018-10-01T21:02:24.649Z,6.53
2018-10-01T21:04:52.936Z,7.22
2018-10-01T21:07:21.194Z,7.45
2018-10-01T21:09:49.453Z,8.38
2018-10-01T21:12:17.842Z,12.28
2018-10-01T21:14:46.163Z,12.75
2018-10-01T21:17:14.378Z,9.25
2018-10-01T21:19:42.610Z,8.73
2018-10-01T21:22:11.638Z,13.18
2018-10-01T21:24:39.853Z,6.53
2018-10-01T21:27:08.133Z,6.15
2018-10-01T21:29:36.323Z,13.68
2018-10-01T21:32:04.520Z,7.35
2018-10-01T21:34:32.907Z,9.33
2018-10-01T21:37:01.199Z,5.40
2018-10-01T21:40:14.947Z,10.53
2018-10-01T21:42:43.323Z,7.22
2018-10-01T21:45:12.847Z,14.07
2018-10-01T21:47:41.076Z,6.60
2018-10-01T21:50:09.271Z,15.98
2018-10-01T21:52:37.536Z,9.95
2018-10-01T21:55:06.069Z,14.43
2018-10-01T21:57:34.883Z,13.25
2018-10-01T22:00:04.317Z,13.80
2018-10-01T22:02:32.621Z,12.95
2018-10-01T22:05:00.924Z,10.85
2018-10-01T22:07:29.133Z,12.82
2018-10-01T22:09:57.335Z,13.88
2018-10-01T22:12:25.627Z,6.65
2018-10-01T22:14:53.844Z,13.43
2018-10-01T22:17:22.040Z,8.58
2018-10-01T22:19:50.387Z,8.48
2018-10-01T22:22:18.692Z,10.05
2018-10-01T22:24:46.857Z,9.85
2018-10-01T22:27:15.012Z,12.85
2018-10-01T22:29:43.230Z,16.32
2018-10-01T22:32:11.543Z,9.33
2018-10-01T22:34:39.772Z,7.60
2018-10-01T22:37:07.912Z,8.90
2018-10-01T22:39:36.178Z,11.38
2018-10-01T22:42:04.488Z,5.15
2018-10-01T22:44:32.643Z,5.17
2018-10-01T22:47:00.778Z,6.08
2018-10-01T22:49:28.981Z,6.95
2018-10-01T22:51:57.208Z,6.20
2018-10-01T22:54:25.407Z,10.48
2018-10-01T22:56:53.579Z,4.45
2018-10-01T22:59:21.728Z,5.55
2018-10-01T23:01:49.901Z,7.70
2018-10-01T23:04:18.084Z,7.87
2018-10-01T23:06:46.253Z,7.20
2018-10-01T23:09:14.383Z,12.93
2018-10-01T23:11:42.595Z,2.72
2018-10-01T23:14:10.828Z,8.70
2018-10-01T23:16:38.977Z,5.95
2018-10-01T23:19:07.139Z,7.20
2018-10-01T23:21:35.275Z,10.75
2018-10-01T23:24:03.732Z,7.50
2018-10-01T23:26:31.945Z,11.93
2018-10-01T23:29:00.157Z,21.85
2018-10-01T23:31:28.306Z,9.08
2018-10-01T23:33:56.468Z,10.15
2018-10-01T23:36:24.679Z,11.18
2018-10-01T23:38:52.856Z,8.33
2018-10-01T23:41:21.077Z,6.47
2018-10-01T23:43:49.363Z,5.20
2018-10-01T23:46:17.515Z,6.03
2018-10-01T23:48:45.687Z,8.63
2018-10-01T23:51:13.860Z,7.45
2018-10-01T23:53:42.891Z,6.40
2018-10-01T23:56:11.123Z,6.65
2018-10-01T23:58:39.336Z,6.05
